sensor_id;sensor_type;location;lat;lon;timestamp;temperature;humidity
68385;DHT22;55336;43.062;25.626;2023-02-28T00:00:52;7.30;99.90
68385;DHT22;55336;43.062;25.626;2023-02-28T00:03:18;7.30;99.90
68385;DHT22;55336;43.062;25.626;2023-02-28T00:05:43;7.40;99.90
68385;DHT22;55336;43.062;25.626;2023-02-28T00:08:09;7.30;99.90
68385;DHT22;55336;43.062;25.626;2023-02-28T00:10:35;7.30;99.90
68385;DHT22;55336;43.062;25.626;2023-02-28T00:13:05;7.30;99.90
68385;DHT22;55336;43.062;25.626;2023-02-28T00:15:32;7.30;99.90
68385;DHT22;55336;43.062;25.626;2023-02-28T00:17:58;7.30;99.90
68385;DHT22;55336;43.062;25.626;2023-02-28T00:20:25;7.30;99.90
68385;DHT22;55336;43.062;25.626;2023-02-28T00:22:52;7.40;99.90
68385;DHT22;55336;43.062;25.626;2023-02-28T00:25:21;7.40;99.90
68385;DHT22;55336;43.062;25.626;2023-02-28T00:27:48;7.30;99.90
68385;DHT22;55336;43.062;25.626;2023-02-28T00:30:22;7.30;99.90
68385;DHT22;55336;43.062;25.626;2023-02-28T00:32:49;7.30;99.90
68385;DHT22;55336;43.062;25.626;2023-02-28T00:35:15;7.30;99.90
68385;DHT22;55336;43.062;25.626;2023-02-28T00:37:41;7.30;99.90
68385;DHT22;55336;43.062;25.626;2023-02-28T00:40:08;7.30;99.90
68385;DHT22;55336;43.062;25.626;2023-02-28T00:42:37;7.40;99.90
68385;DHT22;55336;43.062;25.626;2023-02-28T00:45:04;7.40;99.90
68385;DHT22;55336;43.062;25.626;2023-02-28T00:47:30;7.40;99.90
68385;DHT22;55336;43.062;25.626;2023-02-28T00:49:56;7.50;99.90
68385;DHT22;55336;43.062;25.626;2023-02-28T00:52:22;7.40;99.90
68385;DHT22;55336;43.062;25.626;2023-02-28T00:54:48;7.40;99.90
68385;DHT22;55336;43.062;25.626;2023-02-28T00:57:14;7.40;99.90
68385;DHT22;55336;43.062;25.626;2023-02-28T00:59:39;7.50;99.90
68385;DHT22;55336;43.062;25.626;2023-02-28T01:02:05;7.40;99.90
68385;DHT22;55336;43.062;25.626;2023-02-28T01:04:31;7.50;99.90
68385;DHT22;55336;43.062;25.626;2023-02-28T01:06:57;7.40;99.90
68385;DHT22;55336;43.062;25.626;2023-02-28T01:09:22;7.40;99.90
68385;DHT22;55336;43.062;25.626;2023-02-28T01:11:48;7.50;99.90
68385;DHT22;55336;43.062;25.626;2023-02-28T01:14:15;7.40;99.90
68385;DHT22;55336;43.062;25.626;2023-02-28T01:16:42;7.40;99.90
68385;DHT22;55336;43.062;25.626;2023-02-28T01:19:07;7.40;99.90
68385;DHT22;55336;43.062;25.626;2023-02-28T01:21:33;7.40;99.90
68385;DHT22;55336;43.062;25.626;2023-02-28T01:24:00;7.40;99.90
68385;DHT22;55336;43.062;25.626;2023-02-28T01:26:26;7.40;99.90
68385;DHT22;55336;43.062;25.626;2023-02-28T01:28:52;7.40;99.90
68385;DHT22;55336;43.062;25.626;2023-02-28T01:31:19;7.50;99.90
68385;DHT22;55336;43.062;25.626;2023-02-28T01:33:46;7.40;99.90
68385;DHT22;55336;43.062;25.626;2023-02-28T01:36:15;7.40;99.90
68385;DHT22;55336;43.062;25.626;2023-02-28T01:38:41;7.40;99.90
68385;DHT22;55336;43.062;25.626;2023-02-28T01:41:07;7.40;99.90
68385;DHT22;55336;43.062;25.626;2023-02-28T01:44:02;7.50;99.90
68385;DHT22;55336;43.062;25.626;2023-02-28T01:46:30;7.50;99.90
68385;DHT22;55336;43.062;25.626;2023-02-28T01:49:05;7.50;99.90
68385;DHT22;55336;43.062;25.626;2023-02-28T01:51:45;7.50;99.90
68385;DHT22;55336;43.062;25.626;2023-02-28T01:54:26;7.50;99.90
68385;DHT22;55336;43.062;25.626;2023-02-28T01:57:05;7.50;99.90
68385;DHT22;55336;43.062;25.626;2023-02-28T01:59:42;7.50;99.90
68385;DHT22;55336;43.062;25.626;2023-02-28T02:02:19;7.40;99.90
68385;DHT22;55336;43.062;25.626;2023-02-28T02:04:56;7.40;99.90
68385;DHT22;55336;43.062;25.626;2023-02-28T02:07:23;7.50;99.90
68385;DHT22;55336;43.062;25.626;2023-02-28T02:10:06;7.50;99.90
68385;DHT22;55336;43.062;25.626;2023-02-28T02:17:54;7.50;99.90
68385;DHT22;55336;43.062;25.626;2023-02-28T02:23:51;7.50;99.90
68385;DHT22;55336;43.062;25.626;2023-02-28T02:37:08;7.50;99.90
68385;DHT22;55336;43.062;25.626;2023-02-28T02:45:23;7.50;99.90
68385;DHT22;55336;43.062;25.626;2023-02-28T02:47:51;7.50;99.90
68385;DHT22;55336;43.062;25.626;2023-02-28T02:50:30;7.40;99.90
68385;DHT22;55336;43.062;25.626;2023-02-28T02:53:00;7.40;99.90
68385;DHT22;55336;43.062;25.626;2023-02-28T02:55:27;7.40;99.90
68385;DHT22;55336;43.062;25.626;2023-02-28T02:57:57;7.40;99.90
68385;DHT22;55336;43.062;25.626;2023-02-28T03:00:35;7.40;99.90
68385;DHT22;55336;43.062;25.626;2023-02-28T03:03:03;7.30;99.90
68385;DHT22;55336;43.062;25.626;2023-02-28T03:05:39;7.30;99.90
68385;DHT22;55336;43.062;25.626;2023-02-28T03:08:07;7.20;99.90
68385;DHT22;55336;43.062;25.626;2023-02-28T03:10:37;7.30;99.90
68385;DHT22;55336;43.062;25.626;2023-02-28T03:26:58;7.20;99.90
68385;DHT22;55336;43.062;25.626;2023-02-28T03:29:50;7.20;99.90
68385;DHT22;55336;43.062;25.626;2023-02-28T03:35:01;7.20;99.90
68385;DHT22;55336;43.062;25.626;2023-02-28T03:37:32;7.10;99.90
68385;DHT22;55336;43.062;25.626;2023-02-28T03:40:08;7.10;99.90
68385;DHT22;55336;43.062;25.626;2023-02-28T03:42:41;7.10;99.90
68385;DHT22;55336;43.062;25.626;2023-02-28T03:45:19;7.10;99.90
68385;DHT22;55336;43.062;25.626;2023-02-28T03:47:51;7.00;99.90
68385;DHT22;55336;43.062;25.626;2023-02-28T03:50:22;7.00;99.90
68385;DHT22;55336;43.062;25.626;2023-02-28T03:55:19;7.00;99.90
68385;DHT22;55336;43.062;25.626;2023-02-28T04:00:45;7.00;99.90
68385;DHT22;55336;43.062;25.626;2023-02-28T04:03:12;7.00;99.90
68385;DHT22;55336;43.062;25.626;2023-02-28T04:05:50;6.90;99.90
68385;DHT22;55336;43.062;25.626;2023-02-28T04:08:17;6.90;99.90
68385;DHT22;55336;43.062;25.626;2023-02-28T04:10:43;6.90;99.90
68385;DHT22;55336;43.062;25.626;2023-02-28T04:13:12;6.90;99.90
68385;DHT22;55336;43.062;25.626;2023-02-28T04:15:37;6.90;99.90
68385;DHT22;55336;43.062;25.626;2023-02-28T04:18:03;6.90;99.90
68385;DHT22;55336;43.062;25.626;2023-02-28T04:20:29;7.00;99.90
68385;DHT22;55336;43.062;25.626;2023-02-28T04:22:55;7.00;99.90
68385;DHT22;55336;43.062;25.626;2023-02-28T04:25:21;7.00;99.90
68385;DHT22;55336;43.062;25.626;2023-02-28T04:27:46;7.00;99.90
68385;DHT22;55336;43.062;25.626;2023-02-28T04:30:13;7.00;99.90
68385;DHT22;55336;43.062;25.626;2023-02-28T04:32:39;7.00;99.90
68385;DHT22;55336;43.062;25.626;2023-02-28T04:35:04;7.00;99.90
68385;DHT22;55336;43.062;25.626;2023-02-28T04:37:31;7.00;99.90
68385;DHT22;55336;43.062;25.626;2023-02-28T04:40:01;7.00;99.90
68385;DHT22;55336;43.062;25.626;2023-02-28T04:42:27;7.00;99.90
68385;DHT22;55336;43.062;25.626;2023-02-28T04:44:52;7.00;99.90
68385;DHT22;55336;43.062;25.626;2023-02-28T04:47:19;7.00;99.90
68385;DHT22;55336;43.062;25.626;2023-02-28T04:49:45;7.00;99.90
68385;DHT22;55336;43.062;25.626;2023-02-28T04:52:11;7.00;99.90
68385;DHT22;55336;43.062;25.626;2023-02-28T04:54:39;7.00;99.90
68385;DHT22;55336;43.062;25.626;2023-02-28T04:57:05;7.00;99.90
68385;DHT22;55336;43.062;25.626;2023-02-28T04:59:31;7.00;99.90
68385;DHT22;55336;43.062;25.626;2023-02-28T05:01:57;7.00;99.90
68385;DHT22;55336;43.062;25.626;2023-02-28T05:04:22;7.00;99.90
68385;DHT22;55336;43.062;25.626;2023-02-28T05:06:48;7.10;99.90
68385;DHT22;55336;43.062;25.626;2023-02-28T05:09:14;7.10;99.90
68385;DHT22;55336;43.062;25.626;2023-02-28T05:11:41;7.10;99.90
68385;DHT22;55336;43.062;25.626;2023-02-28T05:14:11;7.00;99.90
68385;DHT22;55336;43.062;25.626;2023-02-28T05:16:37;7.00;99.90
68385;DHT22;55336;43.062;25.626;2023-02-28T05:19:03;7.00;99.90
68385;DHT22;55336;43.062;25.626;2023-02-28T05:21:30;7.00;99.90
68385;DHT22;55336;43.062;25.626;2023-02-28T05:24:00;7.00;99.90
68385;DHT22;55336;43.062;25.626;2023-02-28T05:26:27;7.00;99.90
68385;DHT22;55336;43.062;25.626;2023-02-28T05:28:54;7.00;99.90
68385;DHT22;55336;43.062;25.626;2023-02-28T05:31:20;7.00;99.90
68385;DHT22;55336;43.062;25.626;2023-02-28T05:33:46;7.00;99.90
68385;DHT22;55336;43.062;25.626;2023-02-28T05:36:11;7.00;99.90
68385;DHT22;55336;43.062;25.626;2023-02-28T05:38:37;7.10;99.90
68385;DHT22;55336;43.062;25.626;2023-02-28T05:41:10;7.10;99.90
68385;DHT22;55336;43.062;25.626;2023-02-28T05:43:37;7.10;99.90
68385;DHT22;55336;43.062;25.626;2023-02-28T05:46:09;7.20;99.90
68385;DHT22;55336;43.062;25.626;2023-02-28T05:48:37;7.30;99.90
68385;DHT22;55336;43.062;25.626;2023-02-28T05:51:04;7.30;99.90
68385;DHT22;55336;43.062;25.626;2023-02-28T05:53:30;7.40;99.90
68385;DHT22;55336;43.062;25.626;2023-02-28T05:55:57;7.40;99.90
68385;DHT22;55336;43.062;25.626;2023-02-28T05:58:23;7.40;99.90
68385;DHT22;55336;43.062;25.626;2023-02-28T06:00:51;7.50;99.90
68385;DHT22;55336;43.062;25.626;2023-02-28T06:03:16;7.60;99.90
68385;DHT22;55336;43.062;25.626;2023-02-28T06:05:42;7.60;99.90
68385;DHT22;55336;43.062;25.626;2023-02-28T06:08:11;7.70;99.90
68385;DHT22;55336;43.062;25.626;2023-02-28T06:10:36;7.70;99.90
68385;DHT22;55336;43.062;25.626;2023-02-28T06:13:04;7.80;99.90
68385;DHT22;55336;43.062;25.626;2023-02-28T06:15:30;7.90;99.90
68385;DHT22;55336;43.062;25.626;2023-02-28T06:17:56;7.90;99.90
68385;DHT22;55336;43.062;25.626;2023-02-28T06:20:23;8.00;99.90
68385;DHT22;55336;43.062;25.626;2023-02-28T06:22:49;8.00;99.90
68385;DHT22;55336;43.062;25.626;2023-02-28T06:25:20;8.00;99.90
68385;DHT22;55336;43.062;25.626;2023-02-28T06:27:45;8.00;99.90
68385;DHT22;55336;43.062;25.626;2023-02-28T06:30:12;7.40;99.90
68385;DHT22;55336;43.062;25.626;2023-02-28T06:32:38;8.10;99.90
68385;DHT22;55336;43.062;25.626;2023-02-28T06:35:05;8.00;99.90
68385;DHT22;55336;43.062;25.626;2023-02-28T06:37:32;8.00;99.90
68385;DHT22;55336;43.062;25.626;2023-02-28T06:39:58;8.10;99.90
68385;DHT22;55336;43.062;25.626;2023-02-28T06:42:25;8.10;99.90
68385;DHT22;55336;43.062;25.626;2023-02-28T06:44:58;8.20;99.90
68385;DHT22;55336;43.062;25.626;2023-02-28T06:47:24;8.20;99.90
68385;DHT22;55336;43.062;25.626;2023-02-28T06:49:50;8.20;99.90
68385;DHT22;55336;43.062;25.626;2023-02-28T06:52:16;8.20;99.90
68385;DHT22;55336;43.062;25.626;2023-02-28T06:54:42;8.30;99.90
68385;DHT22;55336;43.062;25.626;2023-02-28T06:57:07;8.30;99.90
68385;DHT22;55336;43.062;25.626;2023-02-28T06:59:33;8.30;99.90
68385;DHT22;55336;43.062;25.626;2023-02-28T07:02:01;8.40;99.90
68385;DHT22;55336;43.062;25.626;2023-02-28T07:04:28;8.40;99.90
68385;DHT22;55336;43.062;25.626;2023-02-28T07:06:55;8.50;99.90
68385;DHT22;55336;43.062;25.626;2023-02-28T07:09:22;8.50;99.90
68385;DHT22;55336;43.062;25.626;2023-02-28T07:11:49;8.50;99.90
68385;DHT22;55336;43.062;25.626;2023-02-28T07:14:14;8.60;99.90
68385;DHT22;55336;43.062;25.626;2023-02-28T07:16:40;8.70;99.90
68385;DHT22;55336;43.062;25.626;2023-02-28T07:19:06;8.80;99.90
68385;DHT22;55336;43.062;25.626;2023-02-28T07:21:32;9.00;99.90
68385;DHT22;55336;43.062;25.626;2023-02-28T07:23:58;9.00;99.90
68385;DHT22;55336;43.062;25.626;2023-02-28T07:26:23;9.10;99.90
68385;DHT22;55336;43.062;25.626;2023-02-28T07:28:49;9.10;99.90
68385;DHT22;55336;43.062;25.626;2023-02-28T07:31:15;9.10;99.90
68385;DHT22;55336;43.062;25.626;2023-02-28T07:33:42;9.20;99.90
68385;DHT22;55336;43.062;25.626;2023-02-28T07:36:15;9.20;99.90
68385;DHT22;55336;43.062;25.626;2023-02-28T07:38:45;9.10;99.90
68385;DHT22;55336;43.062;25.626;2023-02-28T07:41:15;9.20;99.90
68385;DHT22;55336;43.062;25.626;2023-02-28T07:43:41;9.30;99.90
68385;DHT22;55336;43.062;25.626;2023-02-28T07:46:08;9.30;99.90
68385;DHT22;55336;43.062;25.626;2023-02-28T07:48:34;9.30;99.90
68385;DHT22;55336;43.062;25.626;2023-02-28T07:50:59;9.40;99.90
68385;DHT22;55336;43.062;25.626;2023-02-28T07:53:26;9.00;99.90
68385;DHT22;55336;43.062;25.626;2023-02-28T07:56:02;9.00;99.90
68385;DHT22;55336;43.062;25.626;2023-02-28T07:58:29;9.10;99.90
68385;DHT22;55336;43.062;25.626;2023-02-28T08:00:55;9.10;99.90
68385;DHT22;55336;43.062;25.626;2023-02-28T08:03:21;9.10;99.90
68385;DHT22;55336;43.062;25.626;2023-02-28T08:05:48;9.10;99.90
68385;DHT22;55336;43.062;25.626;2023-02-28T08:08:15;9.00;99.90
68385;DHT22;55336;43.062;25.626;2023-02-28T08:10:41;9.00;99.90
68385;DHT22;55336;43.062;25.626;2023-02-28T08:13:07;9.00;99.90
68385;DHT22;55336;43.062;25.626;2023-02-28T08:15:33;8.90;99.90
68385;DHT22;55336;43.062;25.626;2023-02-28T08:17:59;9.00;99.90
68385;DHT22;55336;43.062;25.626;2023-02-28T08:20:26;9.00;99.90
68385;DHT22;55336;43.062;25.626;2023-02-28T08:22:52;9.00;99.90
68385;DHT22;55336;43.062;25.626;2023-02-28T08:25:18;8.90;99.90
68385;DHT22;55336;43.062;25.626;2023-02-28T08:27:44;9.00;99.90
68385;DHT22;55336;43.062;25.626;2023-02-28T08:30:10;8.90;99.90
68385;DHT22;55336;43.062;25.626;2023-02-28T08:32:37;8.80;99.90
68385;DHT22;55336;43.062;25.626;2023-02-28T08:35:02;8.80;99.90
68385;DHT22;55336;43.062;25.626;2023-02-28T08:37:29;8.80;99.90
68385;DHT22;55336;43.062;25.626;2023-02-28T08:39:54;8.90;99.90
68385;DHT22;55336;43.062;25.626;2023-02-28T08:42:20;8.90;99.90
68385;DHT22;55336;43.062;25.626;2023-02-28T08:44:46;9.00;99.90
68385;DHT22;55336;43.062;25.626;2023-02-28T08:47:12;9.10;99.90
68385;DHT22;55336;43.062;25.626;2023-02-28T08:49:38;9.10;99.90
68385;DHT22;55336;43.062;25.626;2023-02-28T08:52:03;9.20;99.90
68385;DHT22;55336;43.062;25.626;2023-02-28T08:54:29;9.30;99.90
68385;DHT22;55336;43.062;25.626;2023-02-28T08:56:57;9.30;99.90
68385;DHT22;55336;43.062;25.626;2023-02-28T08:59:23;9.30;99.90
68385;DHT22;55336;43.062;25.626;2023-02-28T09:01:48;9.40;99.90
68385;DHT22;55336;43.062;25.626;2023-02-28T09:04:15;9.50;99.90
68385;DHT22;55336;43.062;25.626;2023-02-28T09:06:41;9.50;99.90
68385;DHT22;55336;43.062;25.626;2023-02-28T09:09:07;9.60;99.90
68385;DHT22;55336;43.062;25.626;2023-02-28T09:11:33;9.70;99.90
68385;DHT22;55336;43.062;25.626;2023-02-28T09:14:00;9.60;99.90
68385;DHT22;55336;43.062;25.626;2023-02-28T09:16:29;9.60;99.90
68385;DHT22;55336;43.062;25.626;2023-02-28T09:18:56;9.70;99.90
68385;DHT22;55336;43.062;25.626;2023-02-28T09:21:23;9.70;99.90
68385;DHT22;55336;43.062;25.626;2023-02-28T09:23:50;9.50;99.90
68385;DHT22;55336;43.062;25.626;2023-02-28T09:26:17;9.60;99.90
68385;DHT22;55336;43.062;25.626;2023-02-28T09:28:45;9.60;99.90
68385;DHT22;55336;43.062;25.626;2023-02-28T09:31:16;9.70;99.90
68385;DHT22;55336;43.062;25.626;2023-02-28T09:33:42;9.70;99.90
68385;DHT22;55336;43.062;25.626;2023-02-28T09:36:08;9.90;99.90
68385;DHT22;55336;43.062;25.626;2023-02-28T09:38:34;9.90;99.90
68385;DHT22;55336;43.062;25.626;2023-02-28T09:41:03;9.90;99.90
68385;DHT22;55336;43.062;25.626;2023-02-28T09:43:35;10.00;99.90
68385;DHT22;55336;43.062;25.626;2023-02-28T09:48:48;10.00;99.90
68385;DHT22;55336;43.062;25.626;2023-02-28T09:54:17;10.00;99.90
68385;DHT22;55336;43.062;25.626;2023-02-28T09:57:31;9.90;99.90
68385;DHT22;55336;43.062;25.626;2023-02-28T09:59:38;10.00;99.90
68385;DHT22;55336;43.062;25.626;2023-02-28T10:02:19;10.00;99.90
68385;DHT22;55336;43.062;25.626;2023-02-28T10:04:59;9.80;99.90
68385;DHT22;55336;43.062;25.626;2023-02-28T10:08:01;9.60;99.90
68385;DHT22;55336;43.062;25.626;2023-02-28T10:11:00;9.80;99.90
68385;DHT22;55336;43.062;25.626;2023-02-28T10:13:57;10.00;99.90
68385;DHT22;55336;43.062;25.626;2023-02-28T10:16:40;10.00;99.90
68385;DHT22;55336;43.062;25.626;2023-02-28T10:22:14;9.80;99.90
68385;DHT22;55336;43.062;25.626;2023-02-28T10:24:42;9.70;99.90
68385;DHT22;55336;43.062;25.626;2023-02-28T10:29:44;9.70;99.90
68385;DHT22;55336;43.062;25.626;2023-02-28T10:32:17;9.70;99.90
68385;DHT22;55336;43.062;25.626;2023-02-28T10:34:43;9.70;99.90
68385;DHT22;55336;43.062;25.626;2023-02-28T10:37:08;9.70;99.90
68385;DHT22;55336;43.062;25.626;2023-02-28T10:39:41;9.70;99.90
68385;DHT22;55336;43.062;25.626;2023-02-28T10:45:06;9.90;99.90
68385;DHT22;55336;43.062;25.626;2023-02-28T10:47:34;10.00;99.90
68385;DHT22;55336;43.062;25.626;2023-02-28T10:50:02;10.10;99.90
68385;DHT22;55336;43.062;25.626;2023-02-28T10:52:37;10.10;99.90
68385;DHT22;55336;43.062;25.626;2023-02-28T10:55:24;10.10;99.90
68385;DHT22;55336;43.062;25.626;2023-02-28T10:57:51;10.10;99.90
68385;DHT22;55336;43.062;25.626;2023-02-28T11:00:23;10.00;99.90
68385;DHT22;55336;43.062;25.626;2023-02-28T11:02:51;10.00;99.90
68385;DHT22;55336;43.062;25.626;2023-02-28T11:05:32;10.00;99.90
68385;DHT22;55336;43.062;25.626;2023-02-28T11:08:10;9.90;99.90
68385;DHT22;55336;43.062;25.626;2023-02-28T11:10:38;10.00;99.90
68385;DHT22;55336;43.062;25.626;2023-02-28T11:13:05;9.90;99.90
68385;DHT22;55336;43.062;25.626;2023-02-28T11:15:33;10.00;99.90
68385;DHT22;55336;43.062;25.626;2023-02-28T11:20:51;10.00;99.90
68385;DHT22;55336;43.062;25.626;2023-02-28T11:23:19;10.10;99.90
68385;DHT22;55336;43.062;25.626;2023-02-28T11:25:54;10.20;99.90
68385;DHT22;55336;43.062;25.626;2023-02-28T11:31:16;10.10;99.90
68385;DHT22;55336;43.062;25.626;2023-02-28T11:33:48;9.80;99.90
68385;DHT22;55336;43.062;25.626;2023-02-28T11:38:44;9.50;99.90
68385;DHT22;55336;43.062;25.626;2023-02-28T11:51:53;9.60;99.90
68385;DHT22;55336;43.062;25.626;2023-02-28T12:05:24;9.50;99.90
68385;DHT22;55336;43.062;25.626;2023-02-28T12:10:30;9.20;99.90
68385;DHT22;55336;43.062;25.626;2023-02-28T12:13:08;9.10;99.90
68385;DHT22;55336;43.062;25.626;2023-02-28T12:19:01;9.00;99.90
68385;DHT22;55336;43.062;25.626;2023-02-28T12:27:14;8.70;99.90
68385;DHT22;55336;43.062;25.626;2023-02-28T12:33:02;8.70;99.90
68385;DHT22;55336;43.062;25.626;2023-02-28T12:35:40;8.80;99.90
68385;DHT22;55336;43.062;25.626;2023-02-28T12:38:17;8.80;99.90
68385;DHT22;55336;43.062;25.626;2023-02-28T12:40:55;8.80;99.90
68385;DHT22;55336;43.062;25.626;2023-02-28T12:43:27;8.70;99.90
68385;DHT22;55336;43.062;25.626;2023-02-28T12:46:09;8.70;99.90
68385;DHT22;55336;43.062;25.626;2023-02-28T12:48:43;8.50;99.90
68385;DHT22;55336;43.062;25.626;2023-02-28T12:51:12;8.40;99.90
68385;DHT22;55336;43.062;25.626;2023-02-28T12:56:17;8.40;99.90
68385;DHT22;55336;43.062;25.626;2023-02-28T12:58:53;8.30;99.90
68385;DHT22;55336;43.062;25.626;2023-02-28T13:09:11;8.70;99.90
68385;DHT22;55336;43.062;25.626;2023-02-28T13:14:30;7.90;99.90
68385;DHT22;55336;43.062;25.626;2023-02-28T13:22:47;7.70;99.90
68385;DHT22;55336;43.062;25.626;2023-02-28T13:28:13;7.50;99.90
68385;DHT22;55336;43.062;25.626;2023-02-28T13:31:03;7.30;99.90
68385;DHT22;55336;43.062;25.626;2023-02-28T13:33:30;7.30;99.90
68385;DHT22;55336;43.062;25.626;2023-02-28T13:38:43;7.50;99.90
68385;DHT22;55336;43.062;25.626;2023-02-28T13:44:03;7.40;99.90
68385;DHT22;55336;43.062;25.626;2023-02-28T13:46:30;7.50;99.90
68385;DHT22;55336;43.062;25.626;2023-02-28T13:48:56;7.40;99.90
68385;DHT22;55336;43.062;25.626;2023-02-28T14:00:24;7.10;99.90
68385;DHT22;55336;43.062;25.626;2023-02-28T14:05:43;7.20;99.90
68385;DHT22;55336;43.062;25.626;2023-02-28T14:08:24;7.10;99.90
68385;DHT22;55336;43.062;25.626;2023-02-28T14:11:06;7.10;99.90
68385;DHT22;55336;43.062;25.626;2023-02-28T14:13:45;7.20;99.90
68385;DHT22;55336;43.062;25.626;2023-02-28T14:16:25;7.20;99.90
68385;DHT22;55336;43.062;25.626;2023-02-28T14:19:01;7.10;99.90
68385;DHT22;55336;43.062;25.626;2023-02-28T14:21:38;7.10;99.90
68385;DHT22;55336;43.062;25.626;2023-02-28T14:36:10;7.10;99.90
68385;DHT22;55336;43.062;25.626;2023-02-28T14:38:47;7.00;99.90
68385;DHT22;55336;43.062;25.626;2023-02-28T14:43:56;6.90;99.90
68385;DHT22;55336;43.062;25.626;2023-02-28T14:46:25;6.80;99.90
68385;DHT22;55336;43.062;25.626;2023-02-28T14:48:53;6.80;99.90
68385;DHT22;55336;43.062;25.626;2023-02-28T14:51:20;6.90;99.90
68385;DHT22;55336;43.062;25.626;2023-02-28T14:53:50;6.90;99.90
68385;DHT22;55336;43.062;25.626;2023-02-28T14:56:21;6.90;99.90
68385;DHT22;55336;43.062;25.626;2023-02-28T14:58:55;6.80;99.90
68385;DHT22;55336;43.062;25.626;2023-02-28T15:01:23;6.80;99.90
68385;DHT22;55336;43.062;25.626;2023-02-28T15:04:04;6.70;99.90
68385;DHT22;55336;43.062;25.626;2023-02-28T15:06:31;6.60;99.90
68385;DHT22;55336;43.062;25.626;2023-02-28T15:09:29;6.60;99.90
68385;DHT22;55336;43.062;25.626;2023-02-28T15:11:55;6.60;99.90
68385;DHT22;55336;43.062;25.626;2023-02-28T15:14:21;6.60;99.90
68385;DHT22;55336;43.062;25.626;2023-02-28T15:16:59;6.60;99.90
68385;DHT22;55336;43.062;25.626;2023-02-28T15:19:30;6.50;99.90
68385;DHT22;55336;43.062;25.626;2023-02-28T15:22:01;6.50;99.90
68385;DHT22;55336;43.062;25.626;2023-02-28T15:24:39;6.40;99.90
68385;DHT22;55336;43.062;25.626;2023-02-28T15:27:13;6.40;99.90
68385;DHT22;55336;43.062;25.626;2023-02-28T15:29:48;6.40;99.90
68385;DHT22;55336;43.062;25.626;2023-02-28T15:34:55;6.30;99.90
68385;DHT22;55336;43.062;25.626;2023-02-28T15:37:29;6.30;99.90
68385;DHT22;55336;43.062;25.626;2023-02-28T15:40:10;6.30;99.90
68385;DHT22;55336;43.062;25.626;2023-02-28T15:42:37;6.30;99.90
68385;DHT22;55336;43.062;25.626;2023-02-28T15:45:02;6.20;99.90
68385;DHT22;55336;43.062;25.626;2023-02-28T15:47:30;6.30;99.90
68385;DHT22;55336;43.062;25.626;2023-02-28T15:50:01;6.30;99.90
68385;DHT22;55336;43.062;25.626;2023-02-28T15:52:38;6.20;99.90
68385;DHT22;55336;43.062;25.626;2023-02-28T15:55:26;6.20;99.90
68385;DHT22;55336;43.062;25.626;2023-02-28T15:57:56;6.20;99.90
68385;DHT22;55336;43.062;25.626;2023-02-28T16:00:27;6.20;99.90
68385;DHT22;55336;43.062;25.626;2023-02-28T16:02:53;6.20;99.90
68385;DHT22;55336;43.062;25.626;2023-02-28T16:05:29;6.20;99.90
68385;DHT22;55336;43.062;25.626;2023-02-28T16:08:11;6.20;99.90
68385;DHT22;55336;43.062;25.626;2023-02-28T16:10:39;6.10;99.90
68385;DHT22;55336;43.062;25.626;2023-02-28T16:13:05;6.10;99.90
68385;DHT22;55336;43.062;25.626;2023-02-28T16:15:33;6.10;99.90
68385;DHT22;55336;43.062;25.626;2023-02-28T16:18:00;6.10;99.90
68385;DHT22;55336;43.062;25.626;2023-02-28T16:20:30;6.10;99.90
68385;DHT22;55336;43.062;25.626;2023-02-28T16:22:56;6.10;99.90
68385;DHT22;55336;43.062;25.626;2023-02-28T16:25:45;6.00;99.90
68385;DHT22;55336;43.062;25.626;2023-02-28T16:28:33;6.00;99.90
68385;DHT22;55336;43.062;25.626;2023-02-28T16:31:02;6.00;99.90
68385;DHT22;55336;43.062;25.626;2023-02-28T16:33:31;6.00;99.90
68385;DHT22;55336;43.062;25.626;2023-02-28T16:35:59;5.90;99.90
68385;DHT22;55336;43.062;25.626;2023-02-28T16:38:26;5.90;99.90
68385;DHT22;55336;43.062;25.626;2023-02-28T16:40:53;5.90;99.90
68385;DHT22;55336;43.062;25.626;2023-02-28T16:43:23;5.90;99.90
68385;DHT22;55336;43.062;25.626;2023-02-28T16:45:55;6.00;99.90
68385;DHT22;55336;43.062;25.626;2023-02-28T16:48:22;6.00;99.90
68385;DHT22;55336;43.062;25.626;2023-02-28T16:50:48;5.90;99.90
68385;DHT22;55336;43.062;25.626;2023-02-28T16:53:14;5.90;99.90
68385;DHT22;55336;43.062;25.626;2023-02-28T16:55:39;5.90;99.90
68385;DHT22;55336;43.062;25.626;2023-02-28T16:58:05;5.90;99.90
68385;DHT22;55336;43.062;25.626;2023-02-28T17:00:34;5.90;99.90
68385;DHT22;55336;43.062;25.626;2023-02-28T17:03:00;5.90;99.90
68385;DHT22;55336;43.062;25.626;2023-02-28T17:05:34;5.90;99.90
68385;DHT22;55336;43.062;25.626;2023-02-28T17:08:08;5.90;99.90
68385;DHT22;55336;43.062;25.626;2023-02-28T17:10:34;5.90;99.90
68385;DHT22;55336;43.062;25.626;2023-02-28T17:13:03;5.90;99.90
68385;DHT22;55336;43.062;25.626;2023-02-28T17:15:33;5.90;99.90
68385;DHT22;55336;43.062;25.626;2023-02-28T17:18:03;5.90;99.90
68385;DHT22;55336;43.062;25.626;2023-02-28T17:20:34;5.90;99.90
68385;DHT22;55336;43.062;25.626;2023-02-28T17:23:01;5.90;99.90
68385;DHT22;55336;43.062;25.626;2023-02-28T17:25:27;5.90;99.90
68385;DHT22;55336;43.062;25.626;2023-02-28T17:27:55;5.90;99.90
68385;DHT22;55336;43.062;25.626;2023-02-28T17:30:23;5.90;99.90
68385;DHT22;55336;43.062;25.626;2023-02-28T17:32:50;5.90;99.90
68385;DHT22;55336;43.062;25.626;2023-02-28T17:35:18;5.80;99.90
68385;DHT22;55336;43.062;25.626;2023-02-28T17:37:44;5.90;99.90
68385;DHT22;55336;43.062;25.626;2023-02-28T17:40:20;5.90;99.90
68385;DHT22;55336;43.062;25.626;2023-02-28T17:42:55;5.90;99.90
68385;DHT22;55336;43.062;25.626;2023-02-28T17:45:24;5.90;99.90
68385;DHT22;55336;43.062;25.626;2023-02-28T17:47:50;5.90;99.90
68385;DHT22;55336;43.062;25.626;2023-02-28T17:50:20;5.80;99.90
68385;DHT22;55336;43.062;25.626;2023-02-28T17:52:47;5.90;99.90
68385;DHT22;55336;43.062;25.626;2023-02-28T17:55:13;5.90;99.90
68385;DHT22;55336;43.062;25.626;2023-02-28T17:57:39;5.80;99.90
68385;DHT22;55336;43.062;25.626;2023-02-28T18:00:08;5.90;99.90
68385;DHT22;55336;43.062;25.626;2023-02-28T18:02:38;5.90;99.90
68385;DHT22;55336;43.062;25.626;2023-02-28T18:05:04;5.90;99.90
68385;DHT22;55336;43.062;25.626;2023-02-28T18:07:33;5.90;99.90
68385;DHT22;55336;43.062;25.626;2023-02-28T18:09:58;5.90;99.90
68385;DHT22;55336;43.062;25.626;2023-02-28T18:12:24;5.90;99.90
68385;DHT22;55336;43.062;25.626;2023-02-28T18:14:50;5.90;99.90
68385;DHT22;55336;43.062;25.626;2023-02-28T18:17:16;5.90;99.90
68385;DHT22;55336;43.062;25.626;2023-02-28T18:19:43;5.90;99.90
68385;DHT22;55336;43.062;25.626;2023-02-28T18:22:10;5.90;99.90
68385;DHT22;55336;43.062;25.626;2023-02-28T18:24:36;5.90;99.90
68385;DHT22;55336;43.062;25.626;2023-02-28T18:27:02;5.90;99.90